createdAt,value
2022-08-19T00:00:32.711Z,949.4
2022-08-19T00:01:32.707Z,949.41
2022-08-19T00:02:32.701Z,949.45
2022-08-19T00:03:32.699Z,949.38
2022-08-19T00:04:32.734Z,949.45
2022-08-19T00:05:32.688Z,949.43
2022-08-19T00:06:32.689Z,949.43
2022-08-19T00:07:32.676Z,949.38
2022-08-19T00:08:32.670Z,949.36
2022-08-19T00:09:32.667Z,949.32
2022-08-19T00:10:32.661Z,949.26
2022-08-19T00:11:32.656Z,949.26
2022-08-19T00:12:32.647Z,949.22
2022-08-19T00:13:32.646Z,949.21
2022-08-19T00:14:33.031Z,949.16
2022-08-19T00:15:32.635Z,949.13
2022-08-19T00:16:32.628Z,949.1
2022-08-19T00:17:32.626Z,949.03
2022-08-19T00:18:32.618Z,949.01
2022-08-19T00:19:32.614Z,949.01
2022-08-19T00:20:32.607Z,948.95
2022-08-19T00:21:32.604Z,948.91
2022-08-19T00:22:32.598Z,948.86
2022-08-19T00:23:32.595Z,948.82
2022-08-19T00:24:32.588Z,948.79
2022-08-19T00:25:32.584Z,948.79
2022-08-19T00:26:32.580Z,948.7
2022-08-19T00:27:32.572Z,948.68
2022-08-19T00:28:32.568Z,948.7
2022-08-19T00:29:32.563Z,948.68
2022-08-19T00:30:32.557Z,948.65
2022-08-19T00:31:32.555Z,948.65
2022-08-19T00:32:32.548Z,948.59
2022-08-19T00:33:32.541Z,948.57
2022-08-19T00:34:32.538Z,948.52
2022-08-19T00:35:32.531Z,948.56
2022-08-19T00:36:32.528Z,948.53
2022-08-19T00:37:32.521Z,948.48
2022-08-19T00:38:35.312Z,948.46
2022-08-19T00:39:32.554Z,948.51
2022-08-19T00:40:32.511Z,948.5
2022-08-19T00:41:32.499Z,948.47
2022-08-19T00:42:32.505Z,948.48
2022-08-19T00:43:32.491Z,948.47
2022-08-19T00:44:32.486Z,948.45
2022-08-19T00:45:32.478Z,948.54
2022-08-19T00:46:32.477Z,948.47
2022-08-19T00:47:32.469Z,948.52
2022-08-19T00:48:32.469Z,948.53
2022-08-19T00:49:32.461Z,948.56
2022-08-19T00:50:32.453Z,948.58
2022-08-19T00:51:32.446Z,948.56
2022-08-19T00:52:32.442Z,948.51
2022-08-19T00:53:32.435Z,948.49
2022-08-19T00:54:32.477Z,948.5
2022-08-19T00:55:32.425Z,948.45
2022-08-19T00:56:32.422Z,948.42
2022-08-19T00:57:32.419Z,948.41
2022-08-19T00:58:32.413Z,948.41
2022-08-19T00:59:53.585Z,948.45
2022-08-19T01:00:32.401Z,948.44
2022-08-19T01:01:32.443Z,948.48
2022-08-19T01:02:32.392Z,948.45
2022-08-19T01:03:40.267Z,948.44
2022-08-19T01:04:32.381Z,948.44
2022-08-19T01:05:32.373Z,948.36
2022-08-19T01:06:32.371Z,948.34
2022-08-19T01:07:35.816Z,948.35
2022-08-19T01:08:32.360Z,948.29
2022-08-19T01:09:32.355Z,948.3
2022-08-19T01:10:36.198Z,948.33
2022-08-19T01:11:32.341Z,948.33
2022-08-19T01:12:32.338Z,948.33
2022-08-19T01:13:44.685Z,948.33
2022-08-19T01:14:32.327Z,948.31
2022-08-19T01:15:32.321Z,948.3
2022-08-19T01:16:32.318Z,948.3
2022-08-19T01:17:32.312Z,948.29
2022-08-19T01:18:32.305Z,948.27
2022-08-19T01:19:32.301Z,948.22
2022-08-19T01:20:32.294Z,948.21
2022-08-19T01:21:32.290Z,948.23
2022-08-19T01:22:33.795Z,948.22
2022-08-19T01:23:32.280Z,948.21
2022-08-19T01:24:32.274Z,948.17
2022-08-19T01:25:32.269Z,948.19
2022-08-19T01:26:32.263Z,948.19
2022-08-19T01:27:35.276Z,948.22
2022-08-19T01:28:33.777Z,948.17
2022-08-19T01:29:32.249Z,948.18
2022-08-19T01:30:32.246Z,948.2
2022-08-19T01:31:32.631Z,948.25
2022-08-19T01:32:33.751Z,948.23
2022-08-19T01:33:32.231Z,948.21
2022-08-19T01:34:32.223Z,948.23
2022-08-19T01:35:32.221Z,948.22
2022-08-19T01:36:32.211Z,948.24
2022-08-19T01:37:32.208Z,948.26
2022-08-19T01:38:32.202Z,948.27
2022-08-19T01:39:32.224Z,948.28
2022-08-19T01:40:32.191Z,948.28
2022-08-19T01:41:32.195Z,948.29
2022-08-19T01:42:32.181Z,948.27
2022-08-19T01:43:32.176Z,948.21
2022-08-19T01:44:32.171Z,948.23
2022-08-19T01:45:32.167Z,948.19
2022-08-19T01:46:32.162Z,948.19
2022-08-19T01:47:32.157Z,948.18
2022-08-19T01:48:32.151Z,948.13
2022-08-19T01:49:32.146Z,948.14
2022-08-19T01:50:32.140Z,948.15
2022-08-19T01:51:38.602Z,948.14
2022-08-19T01:52:32.129Z,948.11
2022-08-19T01:53:33.808Z,948.18
2022-08-19T01:54:32.118Z,948.19
2022-08-19T01:55:32.116Z,948.23
2022-08-19T01:56:32.109Z,948.24
2022-08-19T01:57:32.105Z,948.23
2022-08-19T01:58:32.097Z,948.22
2022-08-19T01:59:32.094Z,948.24
2022-08-19T02:00:32.087Z,948.29
2022-08-19T02:01:32.102Z,948.29
2022-08-19T02:02:32.078Z,948.3
2022-08-19T02:03:32.074Z,948.31
2022-08-19T02:04:32.068Z,948.3
2022-08-19T02:05:32.064Z,948.25
2022-08-19T02:06:32.060Z,948.27
2022-08-19T02:07:32.055Z,948.23
2022-08-19T02:08:32.051Z,948.22
2022-08-19T02:09:32.042Z,948.24
2022-08-19T02:10:32.039Z,948.24
2022-08-19T02:11:32.033Z,948.25
2022-08-19T02:12:32.031Z,948.31
2022-08-19T02:13:32.028Z,948.39
2022-08-19T02:14:32.018Z,948.38
2022-08-19T02:15:32.011Z,948.38
2022-08-19T02:16:32.007Z,948.38
2022-08-19T02:17:32.001Z,948.35
2022-08-19T02:18:31.998Z,948.38
2022-08-19T02:19:31.992Z,948.38
2022-08-19T02:20:31.987Z,948.4
2022-08-19T02:21:31.980Z,948.39
2022-08-19T02:22:31.977Z,948.39
2022-08-19T02:23:31.970Z,948.46
2022-08-19T02:24:31.966Z,948.51
2022-08-19T02:25:31.959Z,948.52
2022-08-19T02:26:32.016Z,948.55
2022-08-19T02:27:31.949Z,948.57
2022-08-19T02:28:31.945Z,948.53
2022-08-19T02:29:31.938Z,948.55
2022-08-19T02:30:31.935Z,948.57
2022-08-19T02:31:31.930Z,948.55
2022-08-19T02:32:31.929Z,948.52
2022-08-19T02:33:31.918Z,948.55
2022-08-19T02:34:31.914Z,948.61
2022-08-19T02:35:31.907Z,948.65
2022-08-19T02:36:31.905Z,948.66
2022-08-19T02:37:31.897Z,948.67
2022-08-19T02:38:31.892Z,948.63
2022-08-19T02:39:31.895Z,948.69
2022-08-19T02:40:31.884Z,948.67
2022-08-19T02:41:31.875Z,948.67
2022-08-19T02:42:31.872Z,948.68
2022-08-19T02:43:32.305Z,948.7
2022-08-19T02:44:33.368Z,948.77
2022-08-19T02:45:33.360Z,948.75
2022-08-19T02:46:33.357Z,948.76
2022-08-19T02:47:33.350Z,948.74
2022-08-19T02:48:33.345Z,948.76
2022-08-19T02:49:34.627Z,948.71
2022-08-19T02:50:33.336Z,948.74
2022-08-19T02:51:33.329Z,948.72
2022-08-19T02:52:33.327Z,948.71
2022-08-19T02:53:33.321Z,948.68
2022-08-19T02:54:33.316Z,948.7
2022-08-19T02:55:33.309Z,948.72
2022-08-19T02:56:33.306Z,948.75
2022-08-19T02:57:33.300Z,948.74
2022-08-19T02:58:33.296Z,948.73
2022-08-19T02:59:33.290Z,948.72
2022-08-19T03:00:33.283Z,948.77
2022-08-19T03:01:33.342Z,948.77
2022-08-19T03:02:33.272Z,948.75
2022-08-19T03:03:33.270Z,948.78
2022-08-19T03:04:33.263Z,948.78
2022-08-19T03:05:48.056Z,948.8
2022-08-19T03:06:33.253Z,948.86
2022-08-19T03:07:33.250Z,948.91
2022-08-19T03:08:33.243Z,948.88
2022-08-19T03:09:33.241Z,948.93
2022-08-19T03:10:33.234Z,949
2022-08-19T03:11:33.230Z,949
2022-08-19T03:12:33.224Z,949.07
2022-08-19T03:13:33.220Z,949.01
2022-08-19T03:14:33.213Z,949.03
2022-08-19T03:15:33.208Z,949.03
2022-08-19T03:16:33.749Z,949.05
2022-08-19T03:17:33.199Z,949.07
2022-08-19T03:18:33.192Z,949.09
2022-08-19T03:19:33.189Z,949.07
2022-08-19T03:20:33.182Z,949.1
2022-08-19T03:21:33.179Z,949.1
2022-08-19T03:22:33.187Z,949.13
2022-08-19T03:23:33.168Z,949.1
2022-08-19T03:24:33.161Z,949.1
2022-08-19T03:25:33.158Z,949.11
2022-08-19T03:26:33.151Z,949.12
2022-08-19T03:27:34.234Z,949.16
2022-08-19T03:28:33.141Z,949.17
2022-08-19T03:29:33.135Z,949.16
2022-08-19T03:30:33.131Z,949.12
2022-08-19T03:31:42.308Z,949.16
2022-08-19T03:32:33.424Z,949.17
2022-08-19T03:49:59.739Z,949.16
2022-08-19T03:50:59.730Z,949.13
2022-08-19T03:51:59.722Z,949.12
2022-08-19T03:52:59.711Z,949.15
2022-08-19T03:53:59.706Z,949.16
2022-08-19T03:54:59.697Z,949.14
2022-08-19T03:55:59.693Z,949.13
2022-08-19T03:56:59.682Z,949.1
2022-08-19T03:57:59.677Z,949.09
2022-08-19T03:58:59.669Z,949.13
2022-08-19T04:00:03.900Z,949.07
2022-08-19T04:00:59.738Z,949.08
2022-08-19T04:01:59.653Z,949.06
2022-08-19T04:03:00.716Z,949.05
2022-08-19T04:03:59.639Z,949.11
2022-08-19T04:04:59.632Z,949.06
2022-08-19T04:05:59.627Z,949.06
2022-08-19T04:06:59.620Z,949.01
2022-08-19T04:07:59.617Z,949.05
2022-08-19T04:08:59.609Z,949.05
2022-08-19T04:09:59.605Z,949.05
2022-08-19T04:10:59.597Z,949.08
2022-08-19T04:11:59.594Z,949.03
2022-08-19T04:12:59.586Z,949.06
2022-08-19T04:13:59.586Z,949.08
2022-08-19T04:14:59.575Z,949.11
2022-08-19T04:15:59.571Z,949.05
2022-08-19T04:16:59.564Z,949.02
2022-08-19T04:17:59.569Z,948.97
2022-08-19T04:18:59.751Z,948.95
2022-08-19T04:19:59.548Z,948.9
2022-08-19T04:20:59.542Z,948.93
2022-08-19T04:21:59.563Z,948.94
2022-08-19T04:22:59.534Z,948.87
2022-08-19T04:23:59.528Z,948.9
2022-08-19T04:24:59.520Z,948.89
2022-08-19T04:25:59.515Z,948.9
2022-08-19T04:26:59.508Z,948.85
2022-08-19T04:27:59.504Z,948.91
2022-08-19T04:28:59.501Z,948.86
2022-08-19T04:29:59.493Z,948.87
2022-08-19T04:30:59.486Z,948.85
2022-08-19T04:31:59.484Z,948.83
2022-08-19T04:32:59.476Z,948.85
2022-08-19T04:33:59.473Z,948.89
2022-08-19T04:35:01.093Z,948.9
2022-08-19T04:35:59.462Z,948.88
2022-08-19T04:36:59.454Z,948.92
2022-08-19T04:37:59.450Z,948.94
2022-08-19T04:38:59.445Z,948.91
2022-08-19T04:40:01.930Z,948.89
2022-08-19T04:40:59.434Z,948.87
2022-08-19T04:41:59.432Z,948.86
2022-08-19T04:42:59.424Z,948.82
2022-08-19T04:44:03.812Z,948.8
2022-08-19T04:44:59.415Z,948.81
2022-08-19T04:46:00.920Z,948.83
2022-08-19T04:46:59.403Z,948.81
2022-08-19T04:48:19.929Z,948.81
2022-08-19T04:48:59.393Z,948.81
2022-08-19T04:49:59.386Z,948.81
2022-08-19T04:50:59.391Z,948.84
2022-08-19T04:51:59.375Z,948.85
2022-08-19T04:52:59.373Z,948.87
2022-08-19T04:53:59.365Z,948.87
2022-08-19T04:54:59.360Z,948.88
2022-08-19T04:55:59.353Z,948.89
2022-08-19T04:56:59.348Z,948.9
2022-08-19T04:57:59.343Z,948.91
2022-08-19T04:58:59.339Z,948.98
2022-08-19T04:59:59.332Z,948.93
2022-08-19T05:00:59.379Z,948.95
2022-08-19T05:01:59.322Z,948.91
2022-08-19T05:02:59.318Z,948.91
2022-08-19T05:03:59.312Z,948.9
2022-08-19T05:04:59.308Z,948.91
2022-08-19T05:05:59.300Z,948.92
2022-08-19T05:06:59.497Z,948.97
2022-08-19T05:07:59.291Z,949
2022-08-19T05:08:59.287Z,949
2022-08-19T05:09:59.384Z,949.06
2022-08-19T05:10:59.279Z,949.04
2022-08-19T05:11:59.269Z,949.08
2022-08-19T05:12:59.265Z,949.12
2022-08-19T05:13:59.258Z,949.12
2022-08-19T05:14:59.256Z,949.14
2022-08-19T05:15:59.437Z,949.12
2022-08-19T05:17:23.933Z,949.18
2022-08-19T05:17:59.238Z,949.17
2022-08-19T05:18:59.233Z,949.19
2022-08-19T05:19:59.228Z,949.18
2022-08-19T05:20:59.223Z,949.24
2022-08-19T05:21:59.216Z,949.26
2022-08-19T05:22:59.213Z,949.28
2022-08-19T05:23:59.205Z,949.29
2022-08-19T05:25:12.034Z,949.28
2022-08-19T05:25:59.196Z,949.34
2022-08-19T05:26:59.192Z,949.36
2022-08-19T05:27:59.185Z,949.38
2022-08-19T05:28:59.181Z,949.39
2022-08-19T05:29:59.225Z,949.41
2022-08-19T05:30:59.171Z,949.44
2022-08-19T05:31:59.164Z,949.45
2022-08-19T05:32:59.159Z,949.48
2022-08-19T05:33:59.156Z,949.5
2022-08-19T05:34:59.147Z,949.56
2022-08-19T05:35:59.144Z,949.6
2022-08-19T05:36:59.138Z,949.64
2022-08-19T05:37:59.246Z,949.7
2022-08-19T05:38:59.126Z,949.67
2022-08-19T05:39:59.200Z,949.74
2022-08-19T05:40:59.118Z,949.78
2022-08-19T05:41:59.113Z,949.83
2022-08-19T05:42:59.105Z,949.86
2022-08-19T05:43:59.101Z,949.89
2022-08-19T05:44:59.096Z,949.88
2022-08-19T05:45:59.090Z,949.91
2022-08-19T05:46:59.085Z,949.91
2022-08-19T05:47:59.082Z,949.92
2022-08-19T05:48:59.075Z,949.91
2022-08-19T05:49:59.071Z,949.9
2022-08-19T05:50:59.064Z,949.88
2022-08-19T05:51:59.062Z,949.92
2022-08-19T05:52:59.054Z,949.92
2022-08-19T05:53:59.049Z,949.96
2022-08-19T05:54:59.043Z,949.98
2022-08-19T05:55:59.052Z,949.97
2022-08-19T05:56:59.032Z,950.01
2022-08-19T05:57:59.029Z,949.98
2022-08-19T05:58:59.022Z,949.98
2022-08-19T05:59:59.294Z,949.95
2022-08-19T06:00:59.011Z,949.98
2022-08-19T06:01:59.007Z,949.96
2022-08-19T06:02:59.036Z,949.98
2022-08-19T06:03:58.998Z,949.99
2022-08-19T06:04:58.989Z,950.01
2022-08-19T06:05:58.985Z,950.04
2022-08-19T06:06:58.979Z,950.09
2022-08-19T06:07:58.975Z,950.14
2022-08-19T06:08:58.969Z,950.17
2022-08-19T06:10:00.227Z,950.2
2022-08-19T06:10:58.959Z,950.26
2022-08-19T06:11:58.954Z,950.25
2022-08-19T06:12:58.949Z,950.22
2022-08-19T06:13:59.902Z,950.2
2022-08-19T06:15:01.397Z,950.24
2022-08-19T06:15:58.935Z,950.18
2022-08-19T06:16:58.930Z,950.2
2022-08-19T06:17:58.925Z,950.19
2022-08-19T06:18:58.920Z,950.23
2022-08-19T06:19:58.914Z,950.25
2022-08-19T06:20:58.907Z,950.23
2022-08-19T06:21:58.904Z,950.24
2022-08-19T06:22:58.896Z,950.26
2022-08-19T06:23:58.894Z,950.28
2022-08-19T06:24:58.889Z,950.29
2022-08-19T06:25:58.882Z,950.31
2022-08-19T06:27:00.788Z,950.31
2022-08-19T06:28:14.391Z,950.31
2022-08-19T06:28:58.868Z,950.32
2022-08-19T06:29:58.863Z,950.31
2022-08-19T06:30:58.858Z,950.3
2022-08-19T06:31:58.851Z,950.25
2022-08-19T06:32:58.848Z,950.25
2022-08-19T06:33:58.841Z,950.25
2022-08-19T06:34:58.838Z,950.23
2022-08-19T06:35:58.833Z,950.21
2022-08-19T06:36:58.829Z,950.18
2022-08-19T06:37:58.857Z,950.16
2022-08-19T06:38:58.817Z,950.18
2022-08-19T06:39:58.861Z,950.16
2022-08-19T06:40:58.809Z,950.18
2022-08-19T06:41:59.118Z,950.16
2022-08-19T06:42:58.963Z,950.16
2022-08-19T06:43:58.792Z,950.17
2022-08-19T06:44:58.787Z,950.18
2022-08-19T06:45:58.781Z,950.17
2022-08-19T06:46:58.778Z,950.13
2022-08-19T06:47:58.773Z,950.17
2022-08-19T06:48:58.768Z,950.17
2022-08-19T06:50:00.875Z,950.17
2022-08-19T06:50:58.758Z,950.19
2022-08-19T06:51:58.751Z,950.22
2022-08-19T06:53:01.534Z,950.22
2022-08-19T06:53:58.750Z,950.24
2022-08-19T06:54:59.662Z,950.25
2022-08-19T06:55:58.732Z,950.25
2022-08-19T06:56:58.730Z,950.23
2022-08-19T06:57:58.723Z,950.24
2022-08-19T06:58:58.719Z,950.18
2022-08-19T06:59:58.714Z,950.22
2022-08-19T07:00:58.710Z,950.25
2022-08-19T07:01:58.704Z,950.23
2022-08-19T07:03:00.984Z,950.28
2022-08-19T07:03:58.694Z,950.29
2022-08-19T07:04:58.691Z,950.29
2022-08-19T07:05:58.686Z,950.3
2022-08-19T07:06:58.681Z,950.34
2022-08-19T07:08:01.693Z,950.34
2022-08-19T07:08:58.673Z,950.37
2022-08-19T07:10:01.780Z,950.4
2022-08-19T07:10:58.663Z,950.37
2022-08-19T07:11:58.655Z,950.38
2022-08-19T07:12:58.652Z,950.4
2022-08-19T07:13:58.653Z,950.43
2022-08-19T07:14:58.674Z,950.48
2022-08-19T07:15:58.638Z,950.5
2022-08-19T07:16:58.634Z,950.49
2022-08-19T07:17:58.628Z,950.48
2022-08-19T07:18:58.622Z,950.48
2022-08-19T07:19:58.618Z,950.48
2022-08-19T07:20:58.613Z,950.46
2022-08-19T07:21:58.609Z,950.49
2022-08-19T07:22:58.602Z,950.51
2022-08-19T07:23:58.610Z,950.49
2022-08-19T07:24:58.592Z,950.47
2022-08-19T07:25:58.648Z,950.49
2022-08-19T07:26:58.584Z,950.48
2022-08-19T07:27:58.806Z,950.43
2022-08-19T07:28:58.573Z,950.46
2022-08-19T07:29:59.652Z,950.43
2022-08-19T07:30:58.564Z,950.43
2022-08-19T07:31:58.560Z,950.45
2022-08-19T07:32:58.554Z,950.48
2022-08-19T07:33:58.551Z,950.49
2022-08-19T07:34:58.544Z,950.52
2022-08-19T07:35:58.541Z,950.53
2022-08-19T07:36:58.534Z,950.54
2022-08-19T07:37:58.534Z,950.53
2022-08-19T07:38:58.524Z,950.55
2022-08-19T07:39:58.572Z,950.54
2022-08-19T07:40:58.515Z,950.57
2022-08-19T07:41:58.512Z,950.53
2022-08-19T07:42:58.504Z,950.55
2022-08-19T07:43:58.502Z,950.54
2022-08-19T07:44:58.501Z,950.54
2022-08-19T07:45:58.571Z,950.57
2022-08-19T07:46:58.489Z,950.57
2022-08-19T07:47:59.673Z,950.57
2022-08-19T07:48:59.378Z,950.58
2022-08-19T07:49:59.374Z,950.6
2022-08-19T07:50:59.370Z,950.58
2022-08-19T07:51:59.364Z,950.64
2022-08-19T07:52:59.358Z,950.63
2022-08-19T07:53:59.356Z,950.65
2022-08-19T07:54:59.349Z,950.62
2022-08-19T07:55:59.344Z,950.64
2022-08-19T07:56:59.341Z,950.67
2022-08-19T07:57:59.337Z,950.66
2022-08-19T07:58:59.332Z,950.71
2022-08-19T07:59:59.327Z,950.74
2022-08-19T08:00:59.320Z,950.74
2022-08-19T08:01:59.420Z,950.79
2022-08-19T08:02:59.313Z,950.76
2022-08-19T08:03:59.319Z,950.73
2022-08-19T08:04:59.301Z,950.76
2022-08-19T08:05:59.301Z,950.73
2022-08-19T08:06:59.293Z,950.74
2022-08-19T08:07:59.287Z,950.76
2022-08-19T08:08:59.284Z,950.78
2022-08-19T08:09:59.279Z,950.75
2022-08-19T08:10:59.275Z,950.71
2022-08-19T08:12:01.867Z,950.68
2022-08-19T08:13:09.044Z,950.66
2022-08-19T08:14:00.299Z,950.63
2022-08-19T08:14:59.255Z,950.63
2022-08-19T08:15:59.250Z,950.62
2022-08-19T08:16:59.254Z,950.62
2022-08-19T08:17:59.240Z,950.62
2022-08-19T08:18:59.236Z,950.67
2022-08-19T08:19:59.230Z,950.63
2022-08-19T08:20:59.227Z,950.71
2022-08-19T08:21:59.220Z,950.7
2022-08-19T08:22:59.217Z,950.75
2022-08-19T08:24:59.207Z,950.75
2022-08-19T08:25:59.203Z,950.77
2022-08-19T08:26:59.198Z,950.76
2022-08-19T08:27:59.193Z,950.76
2022-08-19T08:28:59.189Z,950.69
2022-08-19T08:29:59.182Z,950.7
2022-08-19T08:30:59.179Z,950.69
2022-08-19T08:32:00.052Z,950.7
2022-08-19T08:32:59.169Z,950.68
2022-08-19T08:33:59.164Z,950.69
2022-08-19T08:34:59.162Z,950.67
2022-08-19T08:35:59.158Z,950.69
2022-08-19T08:36:59.151Z,950.65
2022-08-19T08:37:59.146Z,950.67
2022-08-19T08:38:59.142Z,950.67
2022-08-19T08:39:59.170Z,950.69
2022-08-19T08:40:59.131Z,950.64
2022-08-19T08:41:59.126Z,950.61
2022-08-19T08:42:59.122Z,950.63
2022-08-19T08:43:59.116Z,950.65
2022-08-19T08:44:59.215Z,950.65
2022-08-19T08:45:59.108Z,950.69
2022-08-19T08:46:59.104Z,950.71
2022-08-19T08:47:59.097Z,950.69
2022-08-19T08:48:59.092Z,950.67
2022-08-19T08:49:59.087Z,950.62
2022-08-19T08:50:59.088Z,950.65
2022-08-19T08:51:59.904Z,950.64
2022-08-19T08:52:59.080Z,950.68
2022-08-19T08:53:59.070Z,950.65
2022-08-19T08:54:59.067Z,950.69
2022-08-19T08:55:59.059Z,950.73
2022-08-19T08:56:59.056Z,950.72
2022-08-19T08:57:59.053Z,950.71
2022-08-19T08:58:59.046Z,950.74
2022-08-19T08:59:59.043Z,950.74
2022-08-19T09:00:59.037Z,950.76
2022-08-19T09:01:59.083Z,950.72
2022-08-19T09:02:59.207Z,950.77
2022-08-19T09:04:02.640Z,950.79
2022-08-19T09:04:59.019Z,950.79
2022-08-19T09:05:59.017Z,950.79
2022-08-19T09:06:59.011Z,950.76
2022-08-19T09:07:59.007Z,950.72
2022-08-19T09:08:59.001Z,950.68
2022-08-19T09:09:58.999Z,950.7
2022-08-19T09:10:58.991Z,950.71
2022-08-19T09:11:58.990Z,950.72
2022-08-19T09:12:58.983Z,950.72
2022-08-19T09:13:58.981Z,950.72
2022-08-19T09:14:58.974Z,950.74
2022-08-19T09:15:58.971Z,950.73
2022-08-19T09:16:58.965Z,950.73
2022-08-19T09:17:58.962Z,950.78
2022-08-19T09:18:58.956Z,950.7
2022-08-19T09:19:58.955Z,950.7
2022-08-19T09:20:58.947Z,950.73
2022-08-19T09:21:58.944Z,950.68
2022-08-19T09:22:58.938Z,950.68
2022-08-19T09:23:58.936Z,950.66
2022-08-19T09:24:58.928Z,950.66
2022-08-19T09:25:58.925Z,950.67
2022-08-19T09:26:58.922Z,950.68
2022-08-19T09:28:02.382Z,950.71
2022-08-19T09:28:58.911Z,950.7
2022-08-19T09:29:58.909Z,950.69
2022-08-19T09:30:58.903Z,950.66
2022-08-19T09:31:58.901Z,950.65
2022-08-19T09:32:58.895Z,950.68
2022-08-19T09:33:58.892Z,950.66
2022-08-19T09:34:58.887Z,950.64
2022-08-19T09:35:58.885Z,950.67
2022-08-19T09:36:58.879Z,950.68
2022-08-19T09:37:59.432Z,950.7
2022-08-19T09:38:58.870Z,950.69
2022-08-19T09:39:58.926Z,950.68
2022-08-19T09:40:58.879Z,950.68
2022-08-19T09:41:58.860Z,950.69
2022-08-19T09:42:58.852Z,950.72
2022-08-19T09:43:58.958Z,950.7
2022-08-19T09:44:59.410Z,950.72
2022-08-19T09:45:58.842Z,950.71
2022-08-19T09:46:58.838Z,950.75
2022-08-19T09:47:58.834Z,950.72
2022-08-19T09:48:58.829Z,950.74
2022-08-19T09:49:58.828Z,950.74
2022-08-19T09:50:58.820Z,950.73
2022-08-19T09:51:58.816Z,950.73
2022-08-19T09:52:58.813Z,950.76
2022-08-19T09:53:58.807Z,950.78
2022-08-19T09:54:58.804Z,950.76
2022-08-19T09:55:58.800Z,950.75
2022-08-19T09:56:58.798Z,950.77
2022-08-19T09:57:58.793Z,950.8
2022-08-19T09:58:58.790Z,950.78
2022-08-19T09:59:59.210Z,950.77
2022-08-19T10:00:59.229Z,950.77
2022-08-19T10:02:03.777Z,950.76
2022-08-19T10:02:59.199Z,950.81
2022-08-19T10:03:59.197Z,950.8
2022-08-19T10:04:59.191Z,950.81
2022-08-19T10:05:59.186Z,950.83
2022-08-19T10:06:59.183Z,950.85
2022-08-19T10:07:59.179Z,950.88
2022-08-19T10:08:59.175Z,950.87
2022-08-19T10:09:59.170Z,950.88
2022-08-19T10:10:59.208Z,950.87
2022-08-19T10:11:59.163Z,950.87
2022-08-19T10:12:59.160Z,950.84
2022-08-19T10:13:59.154Z,950.85
2022-08-19T10:14:59.153Z,950.88
2022-08-19T10:15:59.145Z,950.89
2022-08-19T10:16:59.470Z,950.86
2022-08-19T10:17:59.138Z,950.87
2022-08-19T10:18:59.402Z,950.88
2022-08-19T10:19:59.130Z,950.91
2022-08-19T10:20:59.127Z,950.91
2022-08-19T10:22:00.413Z,950.89
2022-08-19T10:22:59.120Z,950.95
2022-08-19T10:23:59.114Z,950.96
2022-08-19T10:24:59.115Z,951
2022-08-19T10:25:59.108Z,950.99
2022-08-19T10:26:59.691Z,951.01
2022-08-19T10:27:59.098Z,951
2022-08-19T10:28:59.095Z,950.99
2022-08-19T10:29:59.089Z,950.96
2022-08-19T10:30:59.087Z,950.94
2022-08-19T10:32:00.219Z,950.94
2022-08-19T10:32:59.079Z,950.94
2022-08-19T10:33:59.072Z,950.98
2022-08-19T10:34:59.069Z,950.92
2022-08-19T10:35:59.064Z,950.96
2022-08-19T10:37:00.669Z,950.94
2022-08-19T10:38:00.249Z,950.93
2022-08-19T10:38:59.054Z,950.95
2022-08-19T10:39:59.141Z,950.96
2022-08-19T10:40:59.043Z,951.01
2022-08-19T10:41:59.044Z,951.01
2022-08-19T10:42:59.037Z,951.01
2022-08-19T10:44:02.426Z,951.02
2022-08-19T10:44:59.026Z,951.04
2022-08-19T10:45:59.025Z,951.1
2022-08-19T10:46:59.018Z,951.09
2022-08-19T10:47:59.015Z,951.07
2022-08-19T10:48:59.011Z,951.04
2022-08-19T10:49:59.007Z,951.05
2022-08-19T10:50:59.002Z,951.06
2022-08-19T10:51:58.999Z,951.07
2022-08-19T10:52:58.992Z,951.07
2022-08-19T10:53:58.997Z,951.1
2022-08-19T10:54:58.985Z,951.05
2022-08-19T10:55:58.983Z,951
2022-08-19T10:56:58.976Z,951.03
2022-08-19T10:58:02.401Z,950.99
2022-08-19T10:58:58.976Z,950.96
2022-08-19T10:59:58.966Z,951
2022-08-19T11:00:59.040Z,951.02
2022-08-19T11:01:58.997Z,951.03
2022-08-19T11:02:58.955Z,951.04
2022-08-19T11:03:58.950Z,951
2022-08-19T11:05:01.825Z,950.97
2022-08-19T11:05:58.944Z,950.98
2022-08-19T11:06:58.938Z,950.98
2022-08-19T11:07:58.936Z,950.96
2022-08-19T11:08:58.931Z,950.99
2022-08-19T11:09:58.931Z,950.97
2022-08-19T11:10:58.923Z,950.94
2022-08-19T11:11:58.923Z,950.95
2022-08-19T11:12:58.917Z,950.97
2022-08-19T11:13:58.916Z,950.94
2022-08-19T11:14:58.912Z,950.91
2022-08-19T11:16:00.861Z,950.94
2022-08-19T11:16:58.905Z,950.94
2022-08-19T11:17:58.903Z,950.94
2022-08-19T11:18:58.896Z,950.96
2022-08-19T11:19:58.895Z,950.94
2022-08-19T11:20:58.890Z,950.99
2022-08-19T11:22:00.078Z,950.98
2022-08-19T11:22:58.883Z,951.02
2022-08-19T11:23:58.880Z,951.03
2022-08-19T11:24:58.875Z,951.02
2022-08-19T11:25:58.873Z,950.99
2022-08-19T11:26:58.868Z,951.02
2022-08-19T11:27:58.867Z,951.02
2022-08-19T11:28:58.867Z,950.99
2022-08-19T11:29:58.859Z,950.96
2022-08-19T11:30:58.857Z,950.96
2022-08-19T11:31:58.851Z,950.99
2022-08-19T11:32:58.849Z,950.98
2022-08-19T11:33:58.843Z,951
2022-08-19T11:34:58.842Z,951.03
2022-08-19T11:35:58.837Z,951.04
2022-08-19T11:36:58.834Z,951
2022-08-19T11:37:58.829Z,951
2022-08-19T11:38:58.829Z,951.01
2022-08-19T11:39:58.843Z,951
2022-08-19T11:40:58.819Z,951.03
2022-08-19T11:41:58.813Z,951.03
2022-08-19T11:42:58.811Z,951.04
2022-08-19T11:43:58.805Z,951.05
2022-08-19T11:44:58.803Z,951.07
2022-08-19T11:45:58.797Z,951.05
2022-08-19T11:46:58.810Z,951.11
2022-08-19T11:47:58.790Z,951.11
2022-08-19T11:48:58.787Z,951.1
2022-08-19T11:49:58.782Z,951.1
2022-08-19T11:50:58.778Z,951.18
2022-08-19T11:51:58.772Z,951.16
2022-08-19T11:52:58.770Z,951.15
2022-08-19T11:53:58.780Z,951.22
2022-08-19T11:54:58.763Z,951.21
2022-08-19T11:55:58.756Z,951.25
2022-08-19T11:56:58.754Z,951.25
2022-08-19T11:57:59.357Z,951.24
2022-08-19T11:58:59.355Z,951.19
2022-08-19T12:00:00.120Z,951.21
2022-08-19T12:01:00.103Z,951.23
2022-08-19T12:02:00.096Z,951.27
2022-08-19T12:03:00.094Z,951.26
2022-08-19T12:04:00.179Z,951.27
2022-08-19T12:05:00.087Z,951.26
2022-08-19T12:06:00.079Z,951.28
2022-08-19T12:07:00.076Z,951.29
2022-08-19T12:08:00.082Z,951.28
2022-08-19T12:09:00.069Z,951.25
2022-08-19T12:10:00.072Z,951.26
2022-08-19T12:11:00.060Z,951.28
2022-08-19T12:12:00.056Z,951.29
2022-08-19T12:13:00.051Z,951.25
2022-08-19T12:14:00.063Z,951.28
2022-08-19T12:15:00.042Z,951.3
2022-08-19T12:16:00.037Z,951.33
2022-08-19T12:17:00.033Z,951.36
2022-08-19T12:18:00.027Z,951.32
2022-08-19T12:19:00.023Z,951.42
2022-08-19T12:20:00.018Z,951.38
2022-08-19T12:21:00.015Z,951.42
2022-08-19T12:22:00.012Z,951.39
2022-08-19T12:23:00.004Z,951.42
2022-08-19T12:24:00.000Z,951.44
2022-08-19T12:24:59.996Z,951.42
2022-08-19T12:25:59.993Z,951.44
2022-08-19T12:27:00.961Z,951.43
2022-08-19T12:28:00.375Z,951.45
2022-08-19T12:28:59.977Z,951.46
2022-08-19T12:29:59.975Z,951.42
2022-08-19T12:30:59.967Z,951.42
2022-08-19T12:32:00.290Z,951.4
2022-08-19T12:33:00.284Z,951.4
2022-08-19T12:34:00.281Z,951.39
2022-08-19T12:35:00.275Z,951.42
2022-08-19T12:36:00.272Z,951.45
2022-08-19T12:37:00.265Z,951.47
2022-08-19T12:38:00.543Z,951.47
2022-08-19T12:39:00.261Z,951.48
2022-08-19T12:40:00.442Z,951.5
2022-08-19T12:41:00.534Z,951.53
2022-08-19T12:42:00.243Z,951.55
2022-08-19T12:43:00.239Z,951.54
2022-08-19T12:44:00.234Z,951.55
2022-08-19T12:45:00.231Z,951.52
2022-08-19T12:46:00.227Z,951.53
2022-08-19T12:47:01.015Z,951.51
2022-08-19T12:48:01.012Z,951.48
2022-08-19T12:49:01.005Z,951.47